Time;durP1;ratioP1;P1;durP2;ratioP2;P2;SDS_P1;SDS_P2;PMS_P1;PMS_P2;Temp;Humidity;BMP_temperature;BMP_pressure;BME280_temperature;BME280_humidity;BME280_pressure;Samples;Min_cycle;Max_cycle;Signal;HPM_P1;HPM_P2
2023/04/15 00:01:43;;;;;;;18.33;7.70;;;;;;;41.83;38.31;100935.50;6154755;23;20456;-91
2023/04/15 00:04:09;;;;;;;21.90;8.73;;;;;;;42.02;38.10;100942.41;6154513;23;20389;-88
2023/04/15 00:06:37;;;;;;;25.73;7.40;;;;;;;42.11;37.70;100940.38;6154478;23;20708;-88
2023/04/15 00:09:02;;;;;;;29.30;10.30;;;;;;;41.93;38.21;100939.75;6154410;23;20388;-88
2023/04/15 00:11:29;;;;;;;17.70;7.07;;;;;;;42.08;37.75;100941.88;6154685;23;20389;-88
2023/04/15 00:13:55;;;;;;;29.60;8.93;;;;;;;42.05;38.04;100941.72;6156602;23;20415;-88
2023/04/15 00:16:20;;;;;;;24.67;6.90;;;;;;;42.05;37.93;100944.44;6153924;23;20381;-88
2023/04/15 00:18:46;;;;;;;22.93;7.77;;;;;;;42.11;37.64;100945.84;6154495;23;20756;-91
2023/04/15 00:21:13;;;;;;;27.27;8.03;;;;;;;42.24;37.64;100944.81;6154286;23;20829;-91
2023/04/15 00:23:38;;;;;;;26.93;9.63;;;;;;;42.21;37.71;100933.78;6153917;23;20381;-89
2023/04/15 00:26:04;;;;;;;20.67;8.37;;;;;;;42.16;37.27;100939.41;6154437;23;20397;-89
2023/04/15 00:28:31;;;;;;;22.60;8.67;;;;;;;42.29;37.30;100930.16;6153465;23;20409;-89
2023/04/15 00:30:57;;;;;;;18.37;7.13;;;;;;;42.39;37.19;100935.22;6153988;23;20397;-89
2023/04/15 00:33:23;;;;;;;23.67;9.23;;;;;;;42.27;37.14;100930.50;6154208;23;20404;-89
2023/04/15 00:35:49;;;;;;;20.77;8.60;;;;;;;42.29;37.40;100927.44;6155644;23;20404;-89
2023/04/15 00:38:15;;;;;;;23.03;9.27;;;;;;;42.32;37.39;100926.78;6153987;23;20385;-88
2023/04/15 00:40:42;;;;;;;24.10;9.17;;;;;;;42.34;37.26;100938.13;6154037;23;20520;-89
2023/04/15 00:43:08;;;;;;;21.00;7.47;;;;;;;42.34;37.03;100928.03;6153823;23;20653;-88
2023/04/15 00:45:34;;;;;;;20.30;8.10;;;;;;;42.41;36.56;100924.75;6154185;23;20920;-89
2023/04/15 00:48:00;;;;;;;21.20;9.30;;;;;;;42.42;37.23;100922.81;6154393;23;20382;-89
2023/04/15 00:50:26;;;;;;;21.70;8.73;;;;;;;42.47;36.76;100917.16;6153883;23;20405;-89
2023/04/15 00:52:52;;;;;;;17.43;8.10;;;;;;;42.62;36.57;100916.56;6154109;23;20524;-89
2023/04/15 00:55:19;;;;;;;18.60;9.10;;;;;;;42.36;36.79;100909.41;6153369;23;20409;-89
2023/04/15 00:57:45;;;;;;;18.70;7.33;;;;;;;42.51;36.61;100918.88;6153874;23;20834;-91
2023/04/15 01:00:11;;;;;;;19.63;7.43;;;;;;;42.59;36.27;100919.94;6153571;23;20425;-91
2023/04/15 01:02:38;;;;;;;33.97;8.80;;;;;;;42.51;36.33;100894.34;6153659;23;20439;-91
2023/04/15 01:05:04;;;;;;;23.20;7.37;;;;;;;42.44;36.60;100905.00;6154032;23;20381;-91
2023/04/15 01:07:30;;;;;;;24.07;8.17;;;;;;;42.48;36.55;100907.84;6153685;23;20384;-91
2023/04/15 01:09:57;;;;;;;18.60;7.17;;;;;;;42.31;36.85;100901.44;6152927;23;20382;-89
2023/04/15 01:12:25;;;;;;;21.63;7.10;;;;;;;42.26;36.56;100901.66;6153383;23;20423;-89
2023/04/15 01:14:52;;;;;;;28.67;8.40;;;;;;;42.34;36.15;100887.13;6153976;23;20369;-91
2023/04/15 01:17:19;;;;;;;13.50;7.13;;;;;;;42.34;36.67;100889.84;6153550;23;20421;-91
2023/04/15 01:19:45;;;;;;;25.07;8.07;;;;;;;42.42;36.59;100885.47;6153664;23;20432;-91
2023/04/15 01:22:11;;;;;;;25.63;9.20;;;;;;;42.19;36.89;100871.44;6153469;23;20377;-88
2023/04/15 01:24:37;;;;;;;17.47;8.00;;;;;;;42.46;36.45;100882.84;6155837;23;20412;-89
2023/04/15 01:27:06;;;;;;;18.83;7.03;;;;;;;42.00;37.01;100862.94;6153470;23;20373;-91
2023/04/15 01:29:37;;;;;;;33.40;7.07;;;;;;;42.34;36.41;100865.31;6153289;23;20773;-89
2023/04/15 01:32:03;;;;;;;26.77;6.70;;;;;;;42.35;37.00;100863.38;6155001;23;20917;-89
2023/04/15 01:34:29;;;;;;;22.40;7.10;;;;;;;42.42;36.58;100857.38;6153586;23;20469;-89
2023/04/15 01:36:55;;;;;;;28.60;8.70;;;;;;;42.42;36.18;100849.19;6153271;23;20413;-89
2023/04/15 01:39:21;;;;;;;23.13;6.57;;;;;;;42.53;36.65;100853.09;6153352;23;20881;-88
2023/04/15 01:41:48;;;;;;;30.83;8.60;;;;;;;42.56;36.48;100842.31;6153688;23;20790;-89
2023/04/15 01:44:14;;;;;;;21.63;8.40;;;;;;;42.52;36.61;100856.94;6153496;23;20381;-89
2023/04/15 01:46:40;;;;;;;15.60;6.90;;;;;;;42.39;36.69;100839.78;6153589;23;20389;-89
2023/04/15 01:49:06;;;;;;;31.50;7.57;;;;;;;42.43;36.95;100832.53;6154125;23;20412;-89
2023/04/15 01:51:32;;;;;;;22.27;6.87;;;;;;;42.32;36.98;100834.88;6153263;23;20381;-89
2023/04/15 01:53:58;;;;;;;23.13;7.53;;;;;;;42.28;37.39;100838.59;6153516;23;20395;-89
2023/04/15 01:56:24;;;;;;;25.77;8.53;;;;;;;42.35;36.78;100836.13;6153207;23;20409;-88
2023/04/15 01:58:50;;;;;;;25.23;7.93;;;;;;;42.27;36.91;100837.03;6153601;23;20232;-88
2023/04/15 02:01:18;;;;;;;23.10;6.87;;;;;;;42.30;37.11;100828.19;6153296;23;20432;-89
2023/04/15 02:03:45;;;;;;;26.50;8.60;;;;;;;42.30;37.01;100833.63;6153365;23;20408;-89
2023/04/15 02:06:11;;;;;;;17.00;6.27;;;;;;;42.42;36.83;100833.66;6153311;23;20951;-88
2023/04/15 02:08:37;;;;;;;24.10;8.10;;;;;;;42.37;36.90;100825.69;6155041;23;20397;-88
2023/04/15 02:11:03;;;;;;;20.97;7.80;;;;;;;42.00;37.35;100838.41;6155097;23;20389;-88
2023/04/15 02:13:29;;;;;;;20.37;8.07;;;;;;;42.13;37.19;100832.66;6153437;23;20385;-89
2023/04/15 02:15:56;;;;;;;22.83;8.87;;;;;;;42.25;37.08;100818.28;6153108;23;20400;-89
2023/04/15 02:18:22;;;;;;;27.63;7.23;;;;;;;42.20;37.04;100818.50;6153295;23;20487;-91
2023/04/15 02:20:51;;;;;;;16.60;6.23;;;;;;;42.28;36.68;100827.72;6153043;23;20917;-90
2023/04/15 02:23:17;;;;;;;19.03;6.67;;;;;;;42.23;37.04;100819.75;6153234;23;20400;-91
2023/04/15 02:25:43;;;;;;;27.87;8.70;;;;;;;42.18;37.21;100809.88;6155046;23;20397;-91
2023/04/15 02:28:08;;;;;;;29.47;9.83;;;;;;;42.17;37.46;100824.59;6153315;23;20415;-89
2023/04/15 02:30:34;;;;;;;17.93;6.10;;;;;;;42.38;36.72;100827.28;6153104;23;20385;-89
2023/04/15 02:33:01;;;;;;;26.60;9.13;;;;;;;42.19;37.40;100821.56;6152241;23;20469;-88
2023/04/15 02:35:27;;;;;;;17.20;7.60;;;;;;;42.26;37.31;100814.41;6153230;23;20846;-89
2023/04/15 02:37:53;;;;;;;22.73;8.77;;;;;;;42.16;37.11;100801.22;6153275;23;20397;-89
2023/04/15 02:40:19;;;;;;;33.43;9.80;;;;;;;42.10;37.54;100811.50;6152611;23;20742;-91
2023/04/15 02:42:45;;;;;;;30.27;11.90;;;;;;;42.23;37.48;100796.00;6153235;23;20424;-90
2023/04/15 02:45:11;;;;;;;23.93;7.20;;;;;;;42.31;36.93;100797.06;6152598;23;20396;-88
2023/04/15 02:47:40;;;;;;;25.83;7.50;;;;;;;42.36;36.54;100780.47;6153173;23;20377;-89
2023/04/15 02:50:08;;;;;;;36.70;8.67;;;;;;;42.46;36.58;100787.41;6153104;23;20397;-88
2023/04/15 02:52:34;;;;;;;25.90;9.67;;;;;;;42.42;36.67;100781.03;6153048;23;20377;-89
2023/04/15 02:55:01;;;;;;;32.03;10.30;;;;;;;42.36;36.97;100778.56;6153083;23;20738;-89
2023/04/15 02:57:28;;;;;;;28.30;6.97;;;;;;;42.36;36.72;100777.75;6152978;23;20386;-89
2023/04/15 02:59:54;;;;;;;17.10;8.43;;;;;;;42.37;36.44;100771.97;6152940;23;20381;-89
2023/04/15 03:02:20;;;;;;;16.67;6.77;;;;;;;42.30;36.87;100765.47;6153161;23;20389;-89
2023/04/15 03:04:46;;;;;;;24.60;10.03;;;;;;;42.42;36.80;100767.41;6153603;23;20382;-88
2023/04/15 03:07:12;;;;;;;21.03;7.80;;;;;;;42.36;36.89;100767.66;6153127;23;20472;-89
2023/04/15 03:09:40;;;;;;;27.80;9.33;;;;;;;42.32;37.39;100760.47;6152651;23;20408;-91
2023/04/15 03:12:06;;;;;;;26.60;7.90;;;;;;;42.16;37.45;100757.59;6153180;23;20389;-90
2023/04/15 03:14:32;;;;;;;21.87;6.57;;;;;;;42.20;36.94;100753.06;6152606;23;20802;-88
2023/04/15 03:16:58;;;;;;;26.37;7.33;;;;;;;42.10;37.02;100757.00;6152971;23;20381;-89
2023/04/15 03:19:24;;;;;;;23.20;7.20;;;;;;;42.08;37.15;100753.03;6152890;23;20732;-89
2023/04/15 03:21:51;;;;;;;16.43;6.13;;;;;;;42.26;36.85;100740.81;6153348;23;20432;-88
2023/04/15 03:24:17;;;;;;;22.60;7.03;;;;;;;41.98;37.45;100756.16;6153050;23;20389;-89
2023/04/15 03:26:43;;;;;;;22.83;7.30;;;;;;;42.07;37.04;100746.00;6152999;23;20413;-89
2023/04/15 03:29:09;;;;;;;19.80;6.80;;;;;;;42.17;37.22;100747.50;6152775;23;20468;-89
2023/04/15 03:31:35;;;;;;;18.10;7.60;;;;;;;42.15;36.93;100734.19;6153006;23;20787;-91
2023/04/15 03:34:01;;;;;;;32.53;9.97;;;;;;;42.29;36.15;100728.44;6153293;23;20412;-91
2023/04/15 03:36:33;;;;;;;25.77;8.00;;;;;;;42.28;36.02;100733.09;6154889;23;20460;-91
2023/04/15 03:39:00;;;;;;;20.57;8.50;;;;;;;42.24;35.90;100731.41;6154510;23;20457;-92
2023/04/15 03:41:27;;;;;;;28.90;9.10;;;;;;;42.07;35.98;100743.25;6154586;23;20420;-89
2023/04/15 03:43:53;;;;;;;14.63;7.50;;;;;;;42.18;35.92;100736.28;6154630;23;20382;-89
2023/04/15 03:46:20;;;;;;;24.07;7.13;;;;;;;42.19;35.93;100737.06;6154546;23;20377;-88
2023/04/15 03:48:47;;;;;;;26.37;10.47;;;;;;;42.16;35.84;100745.88;6154634;23;20456;-89
2023/04/15 03:51:12;;;;;;;28.53;8.77;;;;;;;42.28;35.96;100738.53;6154611;23;20380;-88
2023/04/15 03:53:39;;;;;;;26.90;8.57;;;;;;;42.36;36.47;100736.84;6154613;23;20381;-88
2023/04/15 03:56:05;;;;;;;42.00;11.57;;;;;;;42.26;37.04;100743.53;6154646;23;20460;-88
2023/04/15 03:58:31;;;;;;;19.23;7.80;;;;;;;42.08;36.86;100739.41;6154460;23;20384;-91
2023/04/15 04:00:57;;;;;;;20.57;6.83;;;;;;;42.14;37.04;100736.13;6154423;23;20421;-91
2023/04/15 04:03:23;;;;;;;21.20;7.53;;;;;;;42.21;36.83;100738.31;6155107;23;20391;-89
2023/04/15 04:05:49;;;;;;;19.53;9.33;;;;;;;42.18;36.77;100749.09;6154406;23;20761;-88
2023/04/15 04:08:16;;;;;;;14.20;7.20;;;;;;;42.25;36.46;100746.63;6154543;23;20505;-88
2023/04/15 04:10:42;;;;;;;27.10;9.97;;;;;;;42.14;36.97;100759.84;6154090;23;20427;-88
2023/04/15 04:13:08;;;;;;;23.97;8.77;;;;;;;42.26;36.46;100759.09;6154064;23;20412;-88
2023/04/15 04:15:34;;;;;;;32.70;8.83;;;;;;;42.31;36.51;100747.97;6154336;23;20389;-88
2023/04/15 04:18:00;;;;;;;23.53;7.87;;;;;;;42.23;36.44;100757.03;6154495;23;20377;-89
2023/04/15 04:20:26;;;;;;;22.83;8.57;;;;;;;42.20;36.42;100752.28;6153863;23;20512;-88
2023/04/15 04:22:51;;;;;;;17.10;7.40;;;;;;;42.17;36.06;100751.00;6154408;23;20408;-88
2023/04/15 04:25:17;;;;;;;21.53;10.80;;;;;;;42.28;35.96;100751.38;6154475;23;20381;-88
2023/04/15 04:27:44;;;;;;;16.47;6.83;;;;;;;42.24;36.41;100756.72;6154403;23;20448;-89
2023/04/15 04:30:11;;;;;;;31.27;8.53;;;;;;;42.31;36.21;100758.88;6153832;23;20460;-91
2023/04/15 04:32:37;;;;;;;26.70;8.30;;;;;;;42.21;36.60;100760.13;6154858;23;20432;-91
2023/04/15 04:35:03;;;;;;;25.73;8.83;;;;;;;42.29;36.52;100772.03;6154187;23;20443;-89
2023/04/15 04:37:29;;;;;;;23.60;9.27;;;;;;;42.35;36.22;100771.47;6154401;23;20736;-89
2023/04/15 04:39:55;;;;;;;42.80;9.40;;;;;;;42.11;36.84;100774.13;6153886;23;20388;-88
2023/04/15 04:42:21;;;;;;;23.77;9.43;;;;;;;42.21;36.07;100756.59;6153974;23;20381;-89
2023/04/15 04:44:47;;;;;;;26.07;8.20;;;;;;;42.33;36.10;100773.75;6153995;23;20407;-88
2023/04/15 04:47:14;;;;;;;19.60;7.83;;;;;;;42.29;36.63;100783.75;6154728;23;20691;-91
2023/04/15 04:49:40;;;;;;;13.40;7.40;;;;;;;42.17;37.16;100783.72;6154042;23;20392;-91
2023/04/15 04:52:06;;;;;;;24.03;7.90;;;;;;;42.34;36.38;100797.16;6154083;23;20385;-88
2023/04/15 04:54:32;;;;;;;30.90;8.90;;;;;;;42.17;36.11;100786.44;6153953;23;20389;-88
2023/04/15 04:56:58;;;;;;;25.60;8.67;;;;;;;42.29;36.06;100794.66;6154068;23;20392;-90
2023/04/15 04:59:25;;;;;;;23.17;7.17;;;;;;;42.36;36.15;100792.19;6153958;23;20443;-91
2023/04/15 05:01:51;;;;;;;32.03;9.57;;;;;;;42.39;36.38;100793.41;6153823;23;20429;-89
2023/04/15 05:04:17;;;;;;;22.67;7.70;;;;;;;42.22;36.05;100799.88;6153241;23;20413;-88
2023/04/15 05:06:43;;;;;;;29.63;9.67;;;;;;;42.16;36.09;100814.84;6153958;23;20392;-88
2023/04/15 05:09:09;;;;;;;28.27;8.53;;;;;;;42.22;35.91;100818.94;6153760;23;20488;-88
2023/04/15 05:11:35;;;;;;;25.77;9.43;;;;;;;42.29;36.12;100819.19;6155847;23;20354;-89
2023/04/15 05:14:01;;;;;;;18.37;7.77;;;;;;;42.35;36.08;100819.75;6153800;23;20385;-91
2023/04/15 05:16:27;;;;;;;27.63;9.17;;;;;;;42.36;36.50;100824.91;6153833;23;20419;-91
2023/04/15 05:18:53;;;;;;;26.33;8.17;;;;;;;42.38;36.03;100816.38;6153642;23;20420;-88
2023/04/15 05:21:19;;;;;;;39.27;9.37;;;;;;;42.26;36.40;100824.53;6153582;23;20432;-89
2023/04/15 05:23:46;;;;;;;26.57;9.43;;;;;;;42.32;36.33;100826.69;6153803;23;20707;-88
2023/04/15 05:26:12;;;;;;;26.07;7.67;;;;;;;42.37;36.09;100831.94;6153640;23;20381;-89
2023/04/15 05:28:38;;;;;;;27.03;8.23;;;;;;;42.38;35.93;100830.00;6151086;23;20737;-88
2023/04/15 05:31:06;;;;;;;21.60;8.67;;;;;;;42.33;36.18;100843.84;6153023;23;20397;-90
2023/04/15 05:33:32;;;;;;;27.13;10.27;;;;;;;42.42;36.12;100836.38;6153296;23;20448;-88
2023/04/15 05:35:58;;;;;;;15.70;8.40;;;;;;;42.41;36.29;100834.78;6153661;23;20858;-92
2023/04/15 05:38:24;;;;;;;29.87;8.73;;;;;;;42.51;36.15;100836.28;6153704;23;20411;-93
2023/04/15 05:40:50;;;;;;;29.07;8.53;;;;;;;42.33;36.53;100841.13;6154022;23;20420;-93
2023/04/15 05:43:16;;;;;;;37.67;10.20;;;;;;;42.13;36.84;100845.47;6154506;23;20388;-92
2023/04/15 05:45:42;;;;;;;24.53;10.37;;;;;;;42.17;36.93;100851.88;6153908;23;20400;-95
2023/04/15 05:48:08;;;;;;;27.70;9.80;;;;;;;42.22;37.00;100850.84;6153519;23;20379;-95
2023/04/15 05:50:34;;;;;;;32.57;10.27;;;;;;;42.17;37.17;100856.53;6153611;23;20382;-94
2023/04/15 05:53:00;;;;;;;34.33;12.63;;;;;;;41.97;37.39;100858.13;6153629;23;20887;-93
2023/04/15 05:55:35;;;;;;;33.50;11.40;;;;;;;42.24;37.01;100862.25;6154275;23;20381;-95
2023/04/15 05:58:14;;;;;;;30.47;9.67;;;;;;;42.24;36.93;100857.59;6154319;23;20388;-96
2023/04/15 06:00:57;;;;;;;32.63;10.70;;;;;;;42.38;37.14;100868.97;6156741;23;20479;-95
2023/04/15 06:03:29;;;;;;;34.03;10.33;;;;;;;42.21;37.24;100877.31;6153492;23;20383;-95
2023/04/15 06:05:57;;;;;;;21.43;9.73;;;;;;;42.09;37.36;100874.53;6155302;23;20397;-88
2023/04/15 06:08:23;;;;;;;33.90;10.67;;;;;;;42.05;37.49;100879.88;6153645;23;20401;-85
2023/04/15 06:10:49;;;;;;;42.27;11.30;;;;;;;42.30;37.52;100883.50;6155285;23;20769;-91
2023/04/15 06:13:15;;;;;;;19.27;9.53;;;;;;;42.03;37.20;100884.84;6153540;23;20405;-93
2023/04/15 06:15:42;;;;;;;35.37;11.07;;;;;;;42.04;37.38;100882.91;6154126;23;20389;-94
2023/04/15 06:18:07;;;;;;;40.83;10.83;;;;;;;42.14;37.24;100883.28;6153676;23;20381;-92
2023/04/15 06:20:33;;;;;;;23.63;10.43;;;;;;;42.22;37.05;100878.91;6153462;23;20557;-93
2023/04/15 06:22:59;;;;;;;30.53;10.60;;;;;;;42.19;36.81;100879.59;6153610;23;20473;-92
2023/04/15 06:25:25;;;;;;;26.13;9.17;;;;;;;42.24;36.79;100892.22;6153024;23;20463;-92
2023/04/15 06:27:51;;;;;;;30.93;13.40;;;;;;;42.23;37.02;100887.88;6153399;23;20405;-91
2023/04/15 06:30:17;;;;;;;30.33;9.77;;;;;;;42.36;36.47;100898.50;6153711;23;20407;-92
2023/04/15 06:32:43;;;;;;;46.33;10.60;;;;;;;42.10;36.78;100903.38;6152078;23;20456;-91
2023/04/15 06:35:10;;;;;;;21.87;11.07;;;;;;;42.09;37.23;100907.22;6152850;23;20405;-86
2023/04/15 06:37:36;;;;;;;20.90;11.47;;;;;;;42.11;37.50;100921.31;6151248;23;20853;-87
2023/04/15 06:40:03;;;;;;;34.47;10.10;;;;;;;42.22;37.63;100916.28;6150851;23;20436;-87
2023/04/15 06:42:30;;;;;;;25.30;9.90;;;;;;;42.14;37.06;100931.56;6150989;23;20726;-87
2023/04/15 06:44:56;;;;;;;34.00;9.43;;;;;;;42.33;36.58;100915.53;6151243;23;20931;-88
2023/04/15 06:47:22;;;;;;;31.27;11.27;;;;;;;42.22;36.82;100919.81;6152583;23;20382;-86
2023/04/15 06:49:48;;;;;;;31.07;11.87;;;;;;;42.14;36.94;100924.19;6153153;23;20424;-86
2023/04/15 06:52:15;;;;;;;33.90;13.00;;;;;;;42.08;37.33;100938.34;6153216;23;20385;-86
2023/04/15 06:54:42;;;;;;;38.43;14.60;;;;;;;42.39;37.02;100941.47;6153165;23;20385;-86
2023/04/15 06:57:08;;;;;;;18.50;11.67;;;;;;;42.32;37.55;100952.13;6153315;23;20391;-87
2023/04/15 06:59:34;;;;;;;24.07;11.87;;;;;;;42.41;37.54;100949.28;6153445;23;20439;-86
2023/04/15 07:02:01;;;;;;;24.50;11.10;;;;;;;42.40;37.60;100959.41;6153683;23;20441;-86
2023/04/15 07:04:27;;;;;;;46.20;18.33;;;;;;;42.58;37.41;100968.25;6152998;23;20498;-86
2023/04/15 07:06:54;;;;;;;32.90;14.53;;;;;;;42.60;37.06;100976.09;6152807;23;20394;-85
2023/04/15 07:09:21;;;;;;;29.73;13.80;;;;;;;42.58;37.53;100978.38;6153980;23;20385;-86
2023/04/15 07:11:48;;;;;;;40.67;15.83;;;;;;;42.55;37.25;100982.53;6155060;23;20450;-86
2023/04/15 07:14:14;;;;;;;24.73;15.00;;;;;;;42.54;37.35;101000.03;6154930;23;20888;-86
2023/04/15 07:16:40;;;;;;;25.07;12.80;;;;;;;42.56;36.93;101005.94;6155147;23;20386;-86
2023/04/15 07:19:06;;;;;;;32.20;14.60;;;;;;;42.70;37.21;101011.13;6154800;23;20451;-86
2023/04/15 07:21:32;;;;;;;39.00;18.53;;;;;;;42.63;36.90;101003.50;6155147;23;20424;-86
2023/04/15 07:23:58;;;;;;;45.37;18.23;;;;;;;42.58;37.07;101016.56;6154890;23;20416;-86
2023/04/15 07:26:24;;;;;;;39.73;13.07;;;;;;;42.64;36.81;101021.47;6156821;23;20428;-86
2023/04/15 07:28:50;;;;;;;35.27;14.93;;;;;;;42.67;36.96;101024.66;6154829;23;20385;-84
2023/04/15 07:31:16;;;;;;;32.57;15.80;;;;;;;42.51;36.96;101030.69;6156337;23;20782;-88
2023/04/15 07:33:42;;;;;;;40.53;15.77;;;;;;;42.46;37.13;101030.09;6154789;23;20443;-88
2023/04/15 07:36:09;;;;;;;23.73;16.37;;;;;;;42.62;36.98;101039.31;6155212;23;20388;-86
2023/04/15 07:38:35;;;;;;;30.43;16.50;;;;;;;42.67;37.09;101038.31;6156585;23;20361;-85
2023/04/15 07:41:01;;;;;;;36.00;16.97;;;;;;;42.68;36.98;101032.50;6156670;23;20412;-88
2023/04/15 07:43:27;;;;;;;42.37;16.67;;;;;;;42.78;36.93;101048.44;6154619;23;20403;-86
2023/04/15 07:45:54;;;;;;;35.70;14.90;;;;;;;42.81;36.77;101053.25;6154662;23;20787;-86
2023/04/15 07:48:20;;;;;;;38.73;15.67;;;;;;;42.79;36.85;101060.97;6154580;23;20182;-86
2023/04/15 07:50:46;;;;;;;24.03;13.80;;;;;;;42.78;36.85;101067.53;6154567;23;20377;-87
2023/04/15 07:53:12;;;;;;;32.93;19.70;;;;;;;42.87;36.76;101060.09;6156378;23;20734;-86
2023/04/15 07:55:38;;;;;;;29.07;17.70;;;;;;;42.95;36.48;101063.84;6154618;23;20385;-86
2023/04/15 07:58:04;;;;;;;37.83;15.43;;;;;;;42.86;36.06;101074.88;6154479;23;20396;-86
2023/04/15 08:00:30;;;;;;;27.30;14.73;;;;;;;42.84;36.62;101068.13;6154472;23;21012;-86
2023/04/15 08:02:58;;;;;;;34.27;14.80;;;;;;;42.92;36.47;101073.53;6154437;23;20594;-86
2023/04/15 08:05:24;;;;;;;28.87;13.47;;;;;;;42.98;36.11;101081.50;6154526;23;20409;-86
2023/04/15 08:07:50;;;;;;;39.53;15.67;;;;;;;42.98;36.05;101076.03;6154334;23;20845;-87
2023/04/15 08:10:17;;;;;;;23.63;13.17;;;;;;;43.05;36.16;101084.50;6153871;23;20492;-88
2023/04/15 08:12:43;;;;;;;33.93;13.20;;;;;;;43.03;35.65;101084.84;6154388;23;20436;-86
2023/04/15 08:15:09;;;;;;;43.87;11.87;;;;;;;42.92;36.00;101086.38;6154266;23;20381;-87
2023/04/15 08:17:35;;;;;;;26.50;11.07;;;;;;;43.01;35.77;101089.03;6154262;23;20859;-86
2023/04/15 08:20:03;;;;;;;33.30;13.77;;;;;;;42.95;36.06;101088.41;6153918;23;20389;-84
2023/04/15 08:22:29;;;;;;;23.27;10.53;;;;;;;42.98;35.64;101093.25;6154433;23;20384;-85
2023/04/15 08:24:55;;;;;;;36.83;14.27;;;;;;;42.77;36.50;101093.22;6153962;23;20381;-86
2023/04/15 08:27:21;;;;;;;29.13;13.00;;;;;;;42.98;36.13;101095.16;6154139;23;20465;-87
2023/04/15 08:29:47;;;;;;;43.97;14.57;;;;;;;42.87;36.50;101098.28;6154362;23;20729;-86
2023/04/15 08:32:13;;;;;;;26.40;11.80;;;;;;;43.01;36.07;101091.75;6153002;23;20440;-85
2023/04/15 08:34:39;;;;;;;37.07;11.63;;;;;;;43.00;35.92;101093.69;6154372;23;20396;-86
2023/04/15 08:37:05;;;;;;;37.23;13.80;;;;;;;43.00;36.09;101096.44;6154070;23;20405;-86
2023/04/15 08:39:31;;;;;;;39.70;14.17;;;;;;;42.91;35.84;101087.50;6154227;23;20842;-86
2023/04/15 08:42:02;;;;;;;31.50;13.90;;;;;;;43.03;36.09;101100.41;6153934;23;20426;-86
2023/04/15 08:44:34;;;;;;;28.70;12.07;;;;;;;43.02;35.87;101091.41;6154253;23;20378;-88
2023/04/15 08:47:01;;;;;;;20.17;8.80;;;;;;;42.89;35.76;101096.00;6178933;23;20392;-87
2023/04/15 08:49:28;;;;;;;39.47;10.47;;;;;;;43.03;35.62;101090.31;6154230;23;20381;-88
2023/04/15 08:51:57;;;;;;;33.13;10.80;;;;;;;42.99;35.61;101092.09;6153942;23;20365;-88
2023/04/15 08:54:23;;;;;;;27.00;12.87;;;;;;;43.13;35.95;101094.53;6154224;23;20427;-87
2023/04/15 08:56:49;;;;;;;28.27;12.27;;;;;;;42.87;36.19;101087.38;6154153;23;20444;-88
2023/04/15 08:59:16;;;;;;;21.57;10.23;;;;;;;42.83;36.08;101086.44;6154030;23;20384;-86
2023/04/15 09:01:43;;;;;;;29.03;10.97;;;;;;;42.97;35.50;101096.25;6153848;23;20897;-87
2023/04/15 09:04:11;;;;;;;21.33;9.93;;;;;;;42.97;35.65;101102.53;6153913;23;20384;-88
2023/04/15 09:06:39;;;;;;;29.90;10.00;;;;;;;42.87;35.93;101092.03;6153957;23;20369;-87
2023/04/15 09:09:05;;;;;;;29.27;10.57;;;;;;;43.08;36.15;101103.72;6153876;23;20446;-86
2023/04/15 09:11:31;;;;;;;33.93;13.37;;;;;;;43.16;35.46;101099.34;6153887;23;20854;-86
2023/04/15 09:13:57;;;;;;;26.93;9.93;;;;;;;43.24;35.69;101106.63;6153861;23;20408;-86
2023/04/15 09:16:23;;;;;;;23.10;11.87;;;;;;;43.31;35.72;101103.34;6153847;23;20381;-85
2023/04/15 09:18:50;;;;;;;26.27;13.73;;;;;;;43.29;35.72;101097.41;6153735;23;20385;-86
2023/04/15 09:21:17;;;;;;;43.40;12.20;;;;;;;43.41;35.30;101094.75;6153759;23;20429;-86
2023/04/15 09:23:57;;;;;;;26.13;10.30;;;;;;;43.44;35.45;101094.06;6155900;23;20357;-86
2023/04/15 09:26:33;;;;;;;26.40;9.97;;;;;;;43.44;35.59;101094.06;6105082;23;20446;-86
2023/04/15 09:29:08;;;;;;;28.37;11.30;;;;;;;43.32;35.52;101097.53;6153733;23;20409;-85
2023/04/15 09:31:35;;;;;;;38.23;10.80;;;;;;;43.26;35.98;101078.97;6154834;23;20895;-86
2023/04/15 09:34:02;;;;;;;21.27;9.90;;;;;;;43.48;35.33;101086.78;6153808;23;20460;-88
2023/04/15 09:36:29;;;;;;;40.97;11.47;;;;;;;43.39;35.77;101084.13;6153637;23;20378;-88
2023/04/15 09:38:56;;;;;;;19.33;9.63;;;;;;;43.44;35.43;101091.31;6153758;23;20460;-88
2023/04/15 09:41:24;;;;;;;30.03;10.27;;;;;;;43.44;35.45;101092.13;6153538;23;20425;-87
2023/04/15 09:43:51;;;;;;;17.10;9.73;;;;;;;43.40;35.84;101087.66;6153729;23;20441;-86
2023/04/15 09:46:17;;;;;;;18.87;9.23;;;;;;;43.44;35.29;101089.38;6153678;23;20369;-86
2023/04/15 09:48:43;;;;;;;19.37;8.43;;;;;;;43.56;35.62;101091.34;6153384;23;20374;-86
2023/04/15 09:51:09;;;;;;;20.17;10.87;;;;;;;43.47;35.17;101092.59;6153576;23;20404;-87
2023/04/15 09:53:37;;;;;;;26.53;9.80;;;;;;;43.51;35.74;101098.94;6153598;23;20408;-86
2023/04/15 09:56:03;;;;;;;22.73;9.20;;;;;;;43.44;35.35;101102.25;6153619;23;20774;-87
2023/04/15 09:58:32;;;;;;;37.63;9.80;;;;;;;43.32;35.83;101094.78;6152993;23;20381;-89
2023/04/15 10:01:00;;;;;;;19.83;8.60;;;;;;;43.60;35.67;101091.47;6153395;23;20424;-86
2023/04/15 10:03:29;;;;;;;23.97;11.03;;;;;;;43.44;35.75;101083.13;6153545;23;20385;-87
2023/04/15 10:05:57;;;;;;;24.83;10.47;;;;;;;43.56;35.82;101091.34;6178152;23;20439;-85
2023/04/15 10:08:26;;;;;;;23.50;8.10;;;;;;;43.60;35.34;101094.19;6153530;23;20373;-88
2023/04/15 10:10:53;;;;;;;39.03;10.37;;;;;;;43.55;35.62;101100.66;6153469;23;20931;-85
2023/04/15 10:13:25;;;;;;;23.63;10.10;;;;;;;43.65;35.35;101093.97;6153385;23;20432;-86
2023/04/15 10:16:18;;;;;;;28.60;11.13;;;;;;;43.74;35.14;101086.44;6155310;23;20357;-86
2023/04/15 10:18:55;;;;;;;26.37;10.37;;;;;;;43.81;35.36;101081.22;6154935;23;20408;-86
2023/04/15 10:21:22;;;;;;;28.17;11.10;;;;;;;43.61;35.56;101082.13;6153158;23;20421;-88
2023/04/15 10:23:49;;;;;;;33.30;10.67;;;;;;;43.78;35.48;101073.72;6155391;23;20350;-89
2023/04/15 10:26:16;;;;;;;27.70;9.13;;;;;;;43.90;35.13;101075.66;6153248;23;20373;-85
2023/04/15 10:31:19;;;;;;;21.87;8.47;;;;;;;43.85;35.27;101054.81;6183889;23;20451;-86
2023/04/15 10:33:47;;;;;;;29.10;11.00;;;;;;;43.76;36.04;101051.38;6182886;23;20454;-84
2023/04/15 10:36:14;;;;;;;21.80;8.50;;;;;;;43.72;35.77;101053.22;6182513;23;20388;-84
2023/04/15 10:38:42;;;;;;;32.00;10.23;;;;;;;43.63;36.32;101063.44;6182283;23;20943;-84
2023/04/15 10:41:32;;;;;;;18.23;5.97;;;;;;;43.64;35.72;101068.56;6182748;23;20435;-84
2023/04/15 10:44:02;;;;;;;19.50;7.07;;;;;;;43.73;35.66;101063.00;6183251;23;20404;-83
2023/04/15 10:46:38;;;;;;;21.43;7.57;;;;;;;43.62;35.82;101059.13;6184875;23;20408;-84
2023/04/15 10:49:15;;;;;;;27.57;9.73;;;;;;;43.76;35.62;101056.03;6185184;23;20425;-84
2023/04/15 10:51:46;;;;;;;24.83;8.20;;;;;;;43.70;35.83;101059.00;6184956;23;20380;-84
2023/04/15 10:54:30;;;;;;;20.40;9.57;;;;;;;43.92;35.77;101049.56;6177468;23;20395;-84
2023/04/15 10:57:08;;;;;;;19.03;7.80;;;;;;;43.62;35.79;101045.47;6184798;23;20399;-83
2023/04/15 11:00:10;;;;;;;25.73;12.53;;;;;;;43.82;35.93;101049.22;6184044;23;20395;-84
2023/04/15 11:02:45;;;;;;;34.80;8.60;;;;;;;43.68;35.62;101039.44;6184664;23;20419;-83
2023/04/15 11:05:15;;;;;;;20.17;9.30;;;;;;;43.86;36.12;101044.69;6184758;23;20457;-83
2023/04/15 11:07:55;;;;;;;12.97;6.90;;;;;;;43.53;36.17;101037.41;6184594;23;20721;-85
2023/04/15 11:10:24;;;;;;;24.27;9.53;;;;;;;43.89;35.46;101055.75;6184716;23;20376;-85
2023/04/15 11:12:57;;;;;;;24.97;9.80;;;;;;;43.88;35.71;101042.41;6183761;23;20435;-86
2023/04/15 11:15:36;;;;;;;20.97;7.60;;;;;;;43.96;34.93;101039.56;6184528;23;20387;-86
2023/04/15 11:18:10;;;;;;;29.27;8.90;;;;;;;44.00;35.13;101034.19;6184745;23;20384;-86